sensor_id;sensor_type;location;lat;lon;timestamp;P1;durP1;ratioP1;P2;durP2;ratioP2
5157;SDS011;2598;52.364;9.772;2023-02-15T00:01:08;22.53;;;10.83;;
5157;SDS011;2598;52.364;9.772;2023-02-15T00:03:34;19.60;;;11.17;;
5157;SDS011;2598;52.364;9.772;2023-02-15T00:06:01;18.80;;;10.73;;
5157;SDS011;2598;52.364;9.772;2023-02-15T00:08:27;20.10;;;10.87;;
5157;SDS011;2598;52.364;9.772;2023-02-15T00:10:53;16.87;;;10.27;;
5157;SDS011;2598;52.364;9.772;2023-02-15T00:13:19;18.00;;;10.60;;
5157;SDS011;2598;52.364;9.772;2023-02-15T00:15:45;19.10;;;10.50;;
5157;SDS011;2598;52.364;9.772;2023-02-15T00:18:11;21.00;;;11.13;;
5157;SDS011;2598;52.364;9.772;2023-02-15T00:20:37;19.20;;;10.60;;
5157;SDS011;2598;52.364;9.772;2023-02-15T00:23:03;18.17;;;9.40;;
5157;SDS011;2598;52.364;9.772;2023-02-15T00:25:29;18.70;;;9.80;;
5157;SDS011;2598;52.364;9.772;2023-02-15T00:27:55;18.30;;;9.87;;
5157;SDS011;2598;52.364;9.772;2023-02-15T00:30:21;17.97;;;10.73;;
5157;SDS011;2598;52.364;9.772;2023-02-15T00:32:47;17.70;;;8.90;;
5157;SDS011;2598;52.364;9.772;2023-02-15T00:35:13;16.97;;;9.63;;
5157;SDS011;2598;52.364;9.772;2023-02-15T00:37:39;17.87;;;9.60;;
5157;SDS011;2598;52.364;9.772;2023-02-15T00:40:05;17.60;;;9.10;;
5157;SDS011;2598;52.364;9.772;2023-02-15T00:42:31;16.13;;;8.85;;
5157;SDS011;2598;52.364;9.772;2023-02-15T00:44:57;18.17;;;9.80;;
5157;SDS011;2598;52.364;9.772;2023-02-15T00:47:23;18.77;;;9.53;;
5157;SDS011;2598;52.364;9.772;2023-02-15T00:49:50;16.30;;;8.93;;
5157;SDS011;2598;52.364;9.772;2023-02-15T00:52:16;16.87;;;9.47;;
5157;SDS011;2598;52.364;9.772;2023-02-15T00:54:42;15.70;;;8.60;;
5157;SDS011;2598;52.364;9.772;2023-02-15T00:57:08;13.80;;;7.90;;
5157;SDS011;2598;52.364;9.772;2023-02-15T00:59:34;18.13;;;9.67;;
5157;SDS011;2598;52.364;9.772;2023-02-15T01:02:00;13.40;;;8.27;;
5157;SDS011;2598;52.364;9.772;2023-02-15T01:04:26;13.10;;;8.07;;
5157;SDS011;2598;52.364;9.772;2023-02-15T01:06:52;16.33;;;8.70;;
5157;SDS011;2598;52.364;9.772;2023-02-15T01:09:18;13.63;;;8.00;;
5157;SDS011;2598;52.364;9.772;2023-02-15T01:11:43;14.07;;;7.73;;
5157;SDS011;2598;52.364;9.772;2023-02-15T01:14:09;18.13;;;8.30;;
5157;SDS011;2598;52.364;9.772;2023-02-15T01:16:36;16.70;;;8.47;;
5157;SDS011;2598;52.364;9.772;2023-02-15T01:19:02;13.40;;;7.97;;
5157;SDS011;2598;52.364;9.772;2023-02-15T01:21:28;14.23;;;8.27;;
5157;SDS011;2598;52.364;9.772;2023-02-15T01:23:54;16.20;;;9.20;;
5157;SDS011;2598;52.364;9.772;2023-02-15T01:26:20;14.57;;;8.40;;
5157;SDS011;2598;52.364;9.772;2023-02-15T01:28:46;14.40;;;7.47;;
5157;SDS011;2598;52.364;9.772;2023-02-15T01:31:13;14.17;;;7.50;;
5157;SDS011;2598;52.364;9.772;2023-02-15T01:33:39;14.83;;;7.83;;
5157;SDS011;2598;52.364;9.772;2023-02-15T01:36:06;14.00;;;7.17;;
5157;SDS011;2598;52.364;9.772;2023-02-15T01:38:32;16.63;;;8.40;;
5157;SDS011;2598;52.364;9.772;2023-02-15T01:40:58;13.20;;;7.50;;
5157;SDS011;2598;52.364;9.772;2023-02-15T01:43:44;14.97;;;8.67;;
5157;SDS011;2598;52.364;9.772;2023-02-15T01:46:10;13.10;;;7.00;;
5157;SDS011;2598;52.364;9.772;2023-02-15T01:48:39;15.47;;;8.57;;
5157;SDS011;2598;52.364;9.772;2023-02-15T01:51:08;14.47;;;7.90;;
5157;SDS011;2598;52.364;9.772;2023-02-15T01:53:35;12.80;;;6.63;;
5157;SDS011;2598;52.364;9.772;2023-02-15T01:56:04;14.82;;;7.90;;
5157;SDS011;2598;52.364;9.772;2023-02-15T01:58:32;13.20;;;7.18;;
5157;SDS011;2598;52.364;9.772;2023-02-15T02:01:00;16.60;;;8.40;;
5157;SDS011;2598;52.364;9.772;2023-02-15T02:03:50;15.48;;;8.32;;
5157;SDS011;2598;52.364;9.772;2023-02-15T02:06:18;14.80;;;7.95;;
5157;SDS011;2598;52.364;9.772;2023-02-15T02:08:45;15.50;;;6.87;;
5157;SDS011;2598;52.364;9.772;2023-02-15T02:11:11;14.30;;;6.97;;
5157;SDS011;2598;52.364;9.772;2023-02-15T02:13:38;18.70;;;7.33;;
5157;SDS011;2598;52.364;9.772;2023-02-15T02:16:08;14.20;;;8.35;;
5157;SDS011;2598;52.364;9.772;2023-02-15T02:18:41;13.80;;;7.10;;
5157;SDS011;2598;52.364;9.772;2023-02-15T02:21:21;18.80;;;8.77;;
5157;SDS011;2598;52.364;9.772;2023-02-15T02:24:04;15.65;;;7.35;;
5157;SDS011;2598;52.364;9.772;2023-02-15T02:29:14;16.50;;;8.25;;
5157;SDS011;2598;52.364;9.772;2023-02-15T02:32:07;15.63;;;7.97;;
5157;SDS011;2598;52.364;9.772;2023-02-15T02:34:45;14.07;;;7.32;;
5157;SDS011;2598;52.364;9.772;2023-02-15T02:43:01;14.70;;;8.07;;
5157;SDS011;2598;52.364;9.772;2023-02-15T02:45:39;18.40;;;9.13;;
5157;SDS011;2598;52.364;9.772;2023-02-15T02:48:12;14.38;;;7.63;;
5157;SDS011;2598;52.364;9.772;2023-02-15T02:50:39;12.57;;;7.32;;
5157;SDS011;2598;52.364;9.772;2023-02-15T02:53:05;13.33;;;7.40;;
5157;SDS011;2598;52.364;9.772;2023-02-15T02:55:35;13.23;;;7.70;;
5157;SDS011;2598;52.364;9.772;2023-02-15T03:00:31;18.40;;;8.50;;
5157;SDS011;2598;52.364;9.772;2023-02-15T03:03:00;15.50;;;7.77;;
5157;SDS011;2598;52.364;9.772;2023-02-15T03:05:30;15.60;;;8.10;;
5157;SDS011;2598;52.364;9.772;2023-02-15T03:07:57;14.33;;;7.77;;
5157;SDS011;2598;52.364;9.772;2023-02-15T03:10:26;14.53;;;8.17;;
5157;SDS011;2598;52.364;9.772;2023-02-15T03:12:57;15.23;;;8.03;;
5157;SDS011;2598;52.364;9.772;2023-02-15T03:15:24;13.90;;;7.50;;
5157;SDS011;2598;52.364;9.772;2023-02-15T03:17:51;14.00;;;8.27;;
5157;SDS011;2598;52.364;9.772;2023-02-15T03:20:22;15.97;;;8.30;;
5157;SDS011;2598;52.364;9.772;2023-02-15T03:23:04;13.80;;;8.00;;
5157;SDS011;2598;52.364;9.772;2023-02-15T03:25:36;14.10;;;8.23;;
5157;SDS011;2598;52.364;9.772;2023-02-15T03:28:08;14.80;;;8.20;;
5157;SDS011;2598;52.364;9.772;2023-02-15T03:30:34;16.43;;;8.87;;
5157;SDS011;2598;52.364;9.772;2023-02-15T03:33:00;21.40;;;8.40;;
5157;SDS011;2598;52.364;9.772;2023-02-15T03:35:33;13.60;;;7.43;;
5157;SDS011;2598;52.364;9.772;2023-02-15T03:38:00;15.80;;;8.80;;
5157;SDS011;2598;52.364;9.772;2023-02-15T03:40:37;15.90;;;8.10;;
5157;SDS011;2598;52.364;9.772;2023-02-15T03:43:40;15.80;;;8.00;;
5157;SDS011;2598;52.364;9.772;2023-02-15T03:46:15;17.00;;;8.57;;
5157;SDS011;2598;52.364;9.772;2023-02-15T03:48:45;18.17;;;8.90;;
5157;SDS011;2598;52.364;9.772;2023-02-15T03:51:14;13.63;;;8.10;;
5157;SDS011;2598;52.364;9.772;2023-02-15T03:54:02;15.30;;;8.60;;
5157;SDS011;2598;52.364;9.772;2023-02-15T03:56:28;18.10;;;9.53;;
5157;SDS011;2598;52.364;9.772;2023-02-15T03:58:54;15.70;;;8.20;;
5157;SDS011;2598;52.364;9.772;2023-02-15T04:01:40;16.40;;;8.47;;
5157;SDS011;2598;52.364;9.772;2023-02-15T04:06:53;18.40;;;10.27;;
5157;SDS011;2598;52.364;9.772;2023-02-15T04:09:19;19.10;;;9.67;;
5157;SDS011;2598;52.364;9.772;2023-02-15T04:12:03;16.93;;;8.37;;
5157;SDS011;2598;52.364;9.772;2023-02-15T04:14:29;17.03;;;8.43;;
5157;SDS011;2598;52.364;9.772;2023-02-15T04:17:14;16.73;;;8.57;;
5157;SDS011;2598;52.364;9.772;2023-02-15T04:19:40;15.83;;;8.70;;
5157;SDS011;2598;52.364;9.772;2023-02-15T04:22:24;16.30;;;9.07;;
5157;SDS011;2598;52.364;9.772;2023-02-15T04:25:09;14.97;;;8.50;;
5157;SDS011;2598;52.364;9.772;2023-02-15T04:27:38;17.67;;;8.00;;
5157;SDS011;2598;52.364;9.772;2023-02-15T04:30:05;16.00;;;9.30;;
5157;SDS011;2598;52.364;9.772;2023-02-15T04:32:31;16.90;;;9.23;;
5157;SDS011;2598;52.364;9.772;2023-02-15T04:34:57;17.00;;;9.40;;
5157;SDS011;2598;52.364;9.772;2023-02-15T04:37:23;16.97;;;9.07;;
5157;SDS011;2598;52.364;9.772;2023-02-15T04:39:49;17.87;;;8.40;;
5157;SDS011;2598;52.364;9.772;2023-02-15T04:42:15;14.70;;;8.80;;
5157;SDS011;2598;52.364;9.772;2023-02-15T04:44:42;19.90;;;9.70;;
5157;SDS011;2598;52.364;9.772;2023-02-15T04:47:08;19.33;;;9.80;;
5157;SDS011;2598;52.364;9.772;2023-02-15T04:49:34;15.77;;;9.10;;
5157;SDS011;2598;52.364;9.772;2023-02-15T04:52:00;18.50;;;9.33;;
5157;SDS011;2598;52.364;9.772;2023-02-15T04:54:25;15.23;;;8.77;;
5157;SDS011;2598;52.364;9.772;2023-02-15T04:56:51;19.70;;;9.80;;
5157;SDS011;2598;52.364;9.772;2023-02-15T04:59:17;16.50;;;8.97;;
5157;SDS011;2598;52.364;9.772;2023-02-15T05:01:43;17.73;;;9.37;;
5157;SDS011;2598;52.364;9.772;2023-02-15T05:04:09;15.90;;;8.90;;
5157;SDS011;2598;52.364;9.772;2023-02-15T05:06:35;15.93;;;9.20;;
5157;SDS011;2598;52.364;9.772;2023-02-15T05:09:01;18.93;;;9.93;;
5157;SDS011;2598;52.364;9.772;2023-02-15T05:11:27;18.67;;;10.10;;
5157;SDS011;2598;52.364;9.772;2023-02-15T05:13:53;18.37;;;10.57;;
5157;SDS011;2598;52.364;9.772;2023-02-15T05:16:19;20.07;;;9.47;;
5157;SDS011;2598;52.364;9.772;2023-02-15T05:18:45;20.73;;;10.63;;
5157;SDS011;2598;52.364;9.772;2023-02-15T05:21:11;22.00;;;10.20;;
5157;SDS011;2598;52.364;9.772;2023-02-15T05:23:38;19.43;;;10.17;;
5157;SDS011;2598;52.364;9.772;2023-02-15T05:26:04;18.40;;;10.00;;
5157;SDS011;2598;52.364;9.772;2023-02-15T05:28:49;16.33;;;9.63;;
5157;SDS011;2598;52.364;9.772;2023-02-15T05:31:16;17.00;;;10.00;;
5157;SDS011;2598;52.364;9.772;2023-02-15T05:33:43;19.90;;;10.10;;
5157;SDS011;2598;52.364;9.772;2023-02-15T05:36:09;19.70;;;9.70;;
5157;SDS011;2598;52.364;9.772;2023-02-15T05:38:35;22.07;;;10.20;;
5157;SDS011;2598;52.364;9.772;2023-02-15T05:41:05;19.50;;;10.60;;
5157;SDS011;2598;52.364;9.772;2023-02-15T05:43:31;18.30;;;9.83;;
5157;SDS011;2598;52.364;9.772;2023-02-15T05:45:57;18.13;;;11.13;;
5157;SDS011;2598;52.364;9.772;2023-02-15T05:48:24;22.20;;;11.03;;
5157;SDS011;2598;52.364;9.772;2023-02-15T05:51:00;17.77;;;10.43;;
5157;SDS011;2598;52.364;9.772;2023-02-15T05:53:27;18.00;;;9.97;;
5157;SDS011;2598;52.364;9.772;2023-02-15T05:55:54;29.33;;;10.50;;
5157;SDS011;2598;52.364;9.772;2023-02-15T05:58:24;22.70;;;11.23;;
5157;SDS011;2598;52.364;9.772;2023-02-15T06:00:50;19.20;;;10.60;;
5157;SDS011;2598;52.364;9.772;2023-02-15T06:03:16;21.97;;;10.80;;
5157;SDS011;2598;52.364;9.772;2023-02-15T06:05:42;18.27;;;10.60;;
5157;SDS011;2598;52.364;9.772;2023-02-15T06:08:08;20.10;;;10.70;;
5157;SDS011;2598;52.364;9.772;2023-02-15T06:10:34;19.50;;;10.83;;
5157;SDS011;2598;52.364;9.772;2023-02-15T06:13:00;17.87;;;10.23;;
5157;SDS011;2598;52.364;9.772;2023-02-15T06:15:26;19.17;;;10.50;;
5157;SDS011;2598;52.364;9.772;2023-02-15T06:17:52;21.33;;;10.87;;
5157;SDS011;2598;52.364;9.772;2023-02-15T06:20:18;19.43;;;10.23;;
5157;SDS011;2598;52.364;9.772;2023-02-15T06:22:44;18.97;;;10.50;;
5157;SDS011;2598;52.364;9.772;2023-02-15T06:25:10;19.67;;;10.33;;
5157;SDS011;2598;52.364;9.772;2023-02-15T06:27:36;19.10;;;10.20;;
5157;SDS011;2598;52.364;9.772;2023-02-15T06:30:04;17.80;;;9.23;;
5157;SDS011;2598;52.364;9.772;2023-02-15T06:32:30;15.77;;;9.63;;
5157;SDS011;2598;52.364;9.772;2023-02-15T06:34:56;17.87;;;10.40;;
5157;SDS011;2598;52.364;9.772;2023-02-15T06:37:22;18.60;;;10.17;;
5157;SDS011;2598;52.364;9.772;2023-02-15T06:39:48;16.30;;;9.70;;
5157;SDS011;2598;52.364;9.772;2023-02-15T06:42:15;18.60;;;10.10;;
5157;SDS011;2598;52.364;9.772;2023-02-15T06:44:42;21.40;;;10.87;;
5157;SDS011;2598;52.364;9.772;2023-02-15T06:47:08;20.23;;;10.37;;
5157;SDS011;2598;52.364;9.772;2023-02-15T06:49:35;17.77;;;9.70;;
5157;SDS011;2598;52.364;9.772;2023-02-15T06:52:01;17.97;;;9.23;;
5157;SDS011;2598;52.364;9.772;2023-02-15T06:54:27;15.17;;;8.80;;
5157;SDS011;2598;52.364;9.772;2023-02-15T06:56:53;17.60;;;9.40;;
5157;SDS011;2598;52.364;9.772;2023-02-15T06:59:19;17.37;;;9.73;;
5157;SDS011;2598;52.364;9.772;2023-02-15T07:01:45;18.50;;;10.60;;
5157;SDS011;2598;52.364;9.772;2023-02-15T07:04:11;16.33;;;9.03;;
5157;SDS011;2598;52.364;9.772;2023-02-15T07:06:37;17.40;;;9.57;;
5157;SDS011;2598;52.364;9.772;2023-02-15T07:09:03;19.03;;;9.63;;
5157;SDS011;2598;52.364;9.772;2023-02-15T07:11:29;18.37;;;10.37;;
5157;SDS011;2598;52.364;9.772;2023-02-15T07:14:14;17.73;;;9.40;;
5157;SDS011;2598;52.364;9.772;2023-02-15T07:16:40;23.03;;;10.10;;
5157;SDS011;2598;52.364;9.772;2023-02-15T07:19:06;19.20;;;10.10;;
5157;SDS011;2598;52.364;9.772;2023-02-15T07:21:33;17.67;;;10.07;;
5157;SDS011;2598;52.364;9.772;2023-02-15T07:24:03;18.50;;;9.90;;
5157;SDS011;2598;52.364;9.772;2023-02-15T07:26:30;16.10;;;9.30;;
5157;SDS011;2598;52.364;9.772;2023-02-15T07:28:56;20.90;;;10.70;;
5157;SDS011;2598;52.364;9.772;2023-02-15T07:31:22;18.93;;;10.73;;
5157;SDS011;2598;52.364;9.772;2023-02-15T07:33:49;18.40;;;10.50;;
5157;SDS011;2598;52.364;9.772;2023-02-15T07:36:15;18.73;;;10.00;;
5157;SDS011;2598;52.364;9.772;2023-02-15T07:38:41;21.03;;;11.03;;
5157;SDS011;2598;52.364;9.772;2023-02-15T07:41:12;19.10;;;10.47;;
5157;SDS011;2598;52.364;9.772;2023-02-15T07:43:39;21.50;;;11.73;;
5157;SDS011;2598;52.364;9.772;2023-02-15T07:46:06;20.30;;;10.80;;
5157;SDS011;2598;52.364;9.772;2023-02-15T07:48:33;19.63;;;10.23;;
5157;SDS011;2598;52.364;9.772;2023-02-15T07:50:59;19.50;;;11.80;;
5157;SDS011;2598;52.364;9.772;2023-02-15T07:53:26;20.50;;;11.23;;
5157;SDS011;2598;52.364;9.772;2023-02-15T07:55:52;20.00;;;10.60;;
5157;SDS011;2598;52.364;9.772;2023-02-15T07:58:18;20.33;;;10.73;;
5157;SDS011;2598;52.364;9.772;2023-02-15T08:00:44;18.23;;;10.63;;
5157;SDS011;2598;52.364;9.772;2023-02-15T08:03:25;19.10;;;10.43;;
5157;SDS011;2598;52.364;9.772;2023-02-15T08:05:51;22.13;;;10.30;;
5157;SDS011;2598;52.364;9.772;2023-02-15T08:08:20;20.23;;;11.13;;
5157;SDS011;2598;52.364;9.772;2023-02-15T08:11:02;18.50;;;10.07;;
5157;SDS011;2598;52.364;9.772;2023-02-15T08:13:48;17.97;;;10.50;;
5157;SDS011;2598;52.364;9.772;2023-02-15T08:16:22;18.20;;;10.70;;
5157;SDS011;2598;52.364;9.772;2023-02-15T08:18:48;24.77;;;12.68;;
5157;SDS011;2598;52.364;9.772;2023-02-15T08:21:14;22.83;;;11.73;;
5157;SDS011;2598;52.364;9.772;2023-02-15T08:23:40;20.30;;;10.53;;
5157;SDS011;2598;52.364;9.772;2023-02-15T08:26:06;20.85;;;12.80;;
5157;SDS011;2598;52.364;9.772;2023-02-15T08:28:32;18.90;;;11.77;;
5157;SDS011;2598;52.364;9.772;2023-02-15T08:31:04;18.20;;;10.23;;
5157;SDS011;2598;52.364;9.772;2023-02-15T08:33:30;19.77;;;11.00;;
5157;SDS011;2598;52.364;9.772;2023-02-15T08:35:56;17.17;;;9.93;;
5157;SDS011;2598;52.364;9.772;2023-02-15T08:38:23;18.63;;;9.83;;
5157;SDS011;2598;52.364;9.772;2023-02-15T08:40:49;16.10;;;9.77;;
5157;SDS011;2598;52.364;9.772;2023-02-15T08:43:15;19.33;;;10.30;;
5157;SDS011;2598;52.364;9.772;2023-02-15T08:45:41;16.60;;;9.60;;
5157;SDS011;2598;52.364;9.772;2023-02-15T08:48:07;16.40;;;9.53;;
5157;SDS011;2598;52.364;9.772;2023-02-15T08:50:33;19.07;;;10.43;;
5157;SDS011;2598;52.364;9.772;2023-02-15T08:52:58;16.37;;;9.80;;
5157;SDS011;2598;52.364;9.772;2023-02-15T08:55:24;20.20;;;10.10;;
5157;SDS011;2598;52.364;9.772;2023-02-15T08:57:50;20.42;;;11.25;;
5157;SDS011;2598;52.364;9.772;2023-02-15T09:00:20;20.27;;;10.80;;
5157;SDS011;2598;52.364;9.772;2023-02-15T09:02:47;19.90;;;9.17;;
5157;SDS011;2598;52.364;9.772;2023-02-15T09:05:13;19.30;;;10.00;;
5157;SDS011;2598;52.364;9.772;2023-02-15T09:07:39;21.30;;;9.97;;
5157;SDS011;2598;52.364;9.772;2023-02-15T09:10:05;18.90;;;9.37;;
5157;SDS011;2598;52.364;9.772;2023-02-15T09:12:31;16.10;;;9.30;;
5157;SDS011;2598;52.364;9.772;2023-02-15T09:14:57;17.80;;;9.90;;
5157;SDS011;2598;52.364;9.772;2023-02-15T09:17:23;16.37;;;8.73;;
5157;SDS011;2598;52.364;9.772;2023-02-15T09:19:50;15.07;;;8.70;;
5157;SDS011;2598;52.364;9.772;2023-02-15T09:22:16;15.10;;;8.80;;
5157;SDS011;2598;52.364;9.772;2023-02-15T09:24:42;17.20;;;9.10;;
5157;SDS011;2598;52.364;9.772;2023-02-15T09:27:08;16.43;;;9.00;;
5157;SDS011;2598;52.364;9.772;2023-02-15T09:29:34;15.93;;;9.27;;
5157;SDS011;2598;52.364;9.772;2023-02-15T09:31:59;17.10;;;8.70;;
5157;SDS011;2598;52.364;9.772;2023-02-15T09:34:25;17.53;;;9.43;;
5157;SDS011;2598;52.364;9.772;2023-02-15T09:36:51;17.67;;;9.53;;
5157;SDS011;2598;52.364;9.772;2023-02-15T09:39:19;18.57;;;9.93;;
5157;SDS011;2598;52.364;9.772;2023-02-15T09:49:25;15.63;;;9.00;;
5157;SDS011;2598;52.364;9.772;2023-02-15T09:52:01;18.30;;;9.67;;
5157;SDS011;2598;52.364;9.772;2023-02-15T09:54:54;17.77;;;9.20;;
5157;SDS011;2598;52.364;9.772;2023-02-15T09:57:20;16.83;;;9.40;;
5157;SDS011;2598;52.364;9.772;2023-02-15T09:59:52;17.17;;;9.47;;
5157;SDS011;2598;52.364;9.772;2023-02-15T10:02:28;15.03;;;8.80;;
5157;SDS011;2598;52.364;9.772;2023-02-15T10:05:00;17.40;;;9.17;;
5157;SDS011;2598;52.364;9.772;2023-02-15T10:22:49;17.00;;;9.33;;
5157;SDS011;2598;52.364;9.772;2023-02-15T10:25:23;15.90;;;8.97;;
5157;SDS011;2598;52.364;9.772;2023-02-15T10:27:54;16.40;;;8.87;;
5157;SDS011;2598;52.364;9.772;2023-02-15T10:30:23;15.83;;;8.90;;
5157;SDS011;2598;52.364;9.772;2023-02-15T10:32:56;17.40;;;9.73;;
5157;SDS011;2598;52.364;9.772;2023-02-15T10:35:27;24.60;;;9.43;;
5157;SDS011;2598;52.364;9.772;2023-02-15T10:37:56;15.80;;;8.90;;
5157;SDS011;2598;52.364;9.772;2023-02-15T10:40:28;16.93;;;9.80;;
5157;SDS011;2598;52.364;9.772;2023-02-15T10:43:00;17.63;;;9.50;;
5157;SDS011;2598;52.364;9.772;2023-02-15T10:50:45;17.73;;;9.30;;
5157;SDS011;2598;52.364;9.772;2023-02-15T10:55:55;18.70;;;10.80;;
5157;SDS011;2598;52.364;9.772;2023-02-15T10:58:31;16.63;;;10.37;;
5157;SDS011;2598;52.364;9.772;2023-02-15T11:06:06;15.70;;;9.23;;
5157;SDS011;2598;52.364;9.772;2023-02-15T11:08:39;17.70;;;10.30;;
5157;SDS011;2598;52.364;9.772;2023-02-15T11:11:07;19.83;;;10.43;;
5157;SDS011;2598;52.364;9.772;2023-02-15T11:13:38;16.80;;;8.70;;
5157;SDS011;2598;52.364;9.772;2023-02-15T11:16:06;14.27;;;8.27;;
5157;SDS011;2598;52.364;9.772;2023-02-15T11:18:37;19.40;;;9.83;;
5157;SDS011;2598;52.364;9.772;2023-02-15T11:21:19;16.00;;;8.90;;
5157;SDS011;2598;52.364;9.772;2023-02-15T11:23:46;16.90;;;8.43;;
5157;SDS011;2598;52.364;9.772;2023-02-15T11:26:22;14.90;;;8.50;;
5157;SDS011;2598;52.364;9.772;2023-02-15T11:31:19;15.83;;;9.03;;
5157;SDS011;2598;52.364;9.772;2023-02-15T11:33:47;14.73;;;8.80;;
5157;SDS011;2598;52.364;9.772;2023-02-15T11:36:18;15.57;;;8.40;;
5157;SDS011;2598;52.364;9.772;2023-02-15T11:38:45;17.90;;;9.10;;
5157;SDS011;2598;52.364;9.772;2023-02-15T11:41:19;18.83;;;10.30;;
5157;SDS011;2598;52.364;9.772;2023-02-15T11:43:59;16.90;;;10.20;;
5157;SDS011;2598;52.364;9.772;2023-02-15T11:46:31;17.97;;;9.40;;
5157;SDS011;2598;52.364;9.772;2023-02-15T11:48:57;17.87;;;10.33;;
5157;SDS011;2598;52.364;9.772;2023-02-15T11:51:23;14.20;;;8.60;;
5157;SDS011;2598;52.364;9.772;2023-02-15T11:53:50;16.00;;;9.97;;
5157;SDS011;2598;52.364;9.772;2023-02-15T11:56:18;18.37;;;10.67;;
5157;SDS011;2598;52.364;9.772;2023-02-15T11:58:50;17.07;;;10.37;;
5157;SDS011;2598;52.364;9.772;2023-02-15T12:01:33;18.33;;;11.03;;
5157;SDS011;2598;52.364;9.772;2023-02-15T12:06:41;18.23;;;10.50;;
5157;SDS011;2598;52.364;9.772;2023-02-15T12:09:14;16.83;;;10.63;;
5157;SDS011;2598;52.364;9.772;2023-02-15T12:11:44;18.40;;;10.57;;
5157;SDS011;2598;52.364;9.772;2023-02-15T12:14:11;21.17;;;10.73;;
5157;SDS011;2598;52.364;9.772;2023-02-15T12:19:10;20.40;;;11.87;;
5157;SDS011;2598;52.364;9.772;2023-02-15T12:21:39;18.13;;;10.50;;
5157;SDS011;2598;52.364;9.772;2023-02-15T12:24:14;17.40;;;10.07;;
5157;SDS011;2598;52.364;9.772;2023-02-15T12:26:43;17.23;;;10.67;;
5157;SDS011;2598;52.364;9.772;2023-02-15T12:29:15;19.30;;;10.70;;
5157;SDS011;2598;52.364;9.772;2023-02-15T12:31:45;17.03;;;9.90;;
5157;SDS011;2598;52.364;9.772;2023-02-15T12:36:43;19.43;;;10.60;;
5157;SDS011;2598;52.364;9.772;2023-02-15T12:41:37;17.47;;;11.10;;
5157;SDS011;2598;52.364;9.772;2023-02-15T12:46:33;19.20;;;11.27;;
5157;SDS011;2598;52.364;9.772;2023-02-15T12:49:07;17.10;;;10.27;;
5157;SDS011;2598;52.364;9.772;2023-02-15T12:51:52;18.40;;;10.57;;
5157;SDS011;2598;52.364;9.772;2023-02-15T12:56:50;18.90;;;11.00;;
5157;SDS011;2598;52.364;9.772;2023-02-15T12:59:16;18.40;;;9.93;;
5157;SDS011;2598;52.364;9.772;2023-02-15T13:01:47;16.33;;;9.60;;
5157;SDS011;2598;52.364;9.772;2023-02-15T13:04:28;19.97;;;10.67;;
5157;SDS011;2598;52.364;9.772;2023-02-15T13:06:55;16.50;;;10.30;;
5157;SDS011;2598;52.364;9.772;2023-02-15T13:12:18;18.97;;;10.70;;
5157;SDS011;2598;52.364;9.772;2023-02-15T13:14:46;17.80;;;11.03;;
5157;SDS011;2598;52.364;9.772;2023-02-15T13:17:13;19.70;;;10.67;;
5157;SDS011;2598;52.364;9.772;2023-02-15T13:19:43;20.63;;;11.10;;
5157;SDS011;2598;52.364;9.772;2023-02-15T13:22:12;18.23;;;11.07;;
5157;SDS011;2598;52.364;9.772;2023-02-15T13:24:41;17.83;;;9.97;;
5157;SDS011;2598;52.364;9.772;2023-02-15T13:27:10;17.73;;;10.33;;
5157;SDS011;2598;52.364;9.772;2023-02-15T13:29:38;18.30;;;11.03;;
5157;SDS011;2598;52.364;9.772;2023-02-15T13:32:10;20.37;;;10.80;;
5157;SDS011;2598;52.364;9.772;2023-02-15T13:34:38;17.70;;;10.87;;
5157;SDS011;2598;52.364;9.772;2023-02-15T13:37:06;17.77;;;10.60;;
5157;SDS011;2598;52.364;9.772;2023-02-15T13:39:44;18.03;;;10.73;;
5157;SDS011;2598;52.364;9.772;2023-02-15T13:42:19;18.13;;;10.53;;
5157;SDS011;2598;52.364;9.772;2023-02-15T13:47:21;17.70;;;10.30;;
5157;SDS011;2598;52.364;9.772;2023-02-15T13:49:56;21.93;;;10.90;;
5157;SDS011;2598;52.364;9.772;2023-02-15T13:52:26;21.60;;;10.20;;
5157;SDS011;2598;52.364;9.772;2023-02-15T13:54:56;18.03;;;10.70;;
5157;SDS011;2598;52.364;9.772;2023-02-15T13:57:35;18.93;;;10.83;;
5157;SDS011;2598;52.364;9.772;2023-02-15T14:00:26;19.00;;;11.43;;
5157;SDS011;2598;52.364;9.772;2023-02-15T14:03:12;22.10;;;12.07;;
5157;SDS011;2598;52.364;9.772;2023-02-15T14:06:00;17.30;;;9.77;;
5157;SDS011;2598;52.364;9.772;2023-02-15T14:08:52;18.13;;;11.70;;
5157;SDS011;2598;52.364;9.772;2023-02-15T14:19:24;19.00;;;12.30;;
5157;SDS011;2598;52.364;9.772;2023-02-15T14:21:55;19.63;;;10.87;;
5157;SDS011;2598;52.364;9.772;2023-02-15T14:27:22;16.50;;;10.17;;
5157;SDS011;2598;52.364;9.772;2023-02-15T14:29:57;17.23;;;10.93;;
5157;SDS011;2598;52.364;9.772;2023-02-15T14:32:25;22.40;;;14.23;;
5157;SDS011;2598;52.364;9.772;2023-02-15T14:34:52;27.30;;;12.60;;
5157;SDS011;2598;52.364;9.772;2023-02-15T14:37:22;19.60;;;11.90;;
5157;SDS011;2598;52.364;9.772;2023-02-15T14:39:55;19.27;;;11.23;;
5157;SDS011;2598;52.364;9.772;2023-02-15T14:42:51;18.80;;;12.70;;
5157;SDS011;2598;52.364;9.772;2023-02-15T14:45:26;18.57;;;11.20;;
5157;SDS011;2598;52.364;9.772;2023-02-15T14:48:01;17.57;;;10.60;;
5157;SDS011;2598;52.364;9.772;2023-02-15T14:50:35;20.80;;;12.30;;
5157;SDS011;2598;52.364;9.772;2023-02-15T14:53:15;20.60;;;10.80;;
5157;SDS011;2598;52.364;9.772;2023-02-15T14:55:41;18.90;;;11.50;;
5157;SDS011;2598;52.364;9.772;2023-02-15T14:58:10;21.93;;;11.70;;
5157;SDS011;2598;52.364;9.772;2023-02-15T15:00:40;17.23;;;10.83;;
5157;SDS011;2598;52.364;9.772;2023-02-15T15:03:11;18.47;;;11.10;;
5157;SDS011;2598;52.364;9.772;2023-02-15T15:05:49;18.57;;;10.50;;
5157;SDS011;2598;52.364;9.772;2023-02-15T15:08:27;19.30;;;12.03;;
5157;SDS011;2598;52.364;9.772;2023-02-15T15:10:54;19.03;;;11.17;;
5157;SDS011;2598;52.364;9.772;2023-02-15T15:18:46;18.10;;;10.17;;
5157;SDS011;2598;52.364;9.772;2023-02-15T15:21:50;20.07;;;11.23;;
5157;SDS011;2598;52.364;9.772;2023-02-15T15:23:58;20.10;;;11.73;;
5157;SDS011;2598;52.364;9.772;2023-02-15T15:26:28;18.53;;;11.43;;
5157;SDS011;2598;52.364;9.772;2023-02-15T15:28:56;21.33;;;11.40;;
5157;SDS011;2598;52.364;9.772;2023-02-15T15:39:44;21.87;;;12.67;;
5157;SDS011;2598;52.364;9.772;2023-02-15T15:50:20;19.40;;;11.13;;
5157;SDS011;2598;52.364;9.772;2023-02-15T15:52:49;21.63;;;12.00;;
5157;SDS011;2598;52.364;9.772;2023-02-15T15:55:20;20.00;;;11.30;;
5157;SDS011;2598;52.364;9.772;2023-02-15T15:57:48;20.00;;;11.37;;
5157;SDS011;2598;52.364;9.772;2023-02-15T16:02:53;19.63;;;11.40;;
5157;SDS011;2598;52.364;9.772;2023-02-15T16:05:22;19.57;;;9.93;;
5157;SDS011;2598;52.364;9.772;2023-02-15T16:07:48;18.87;;;11.40;;
5157;SDS011;2598;52.364;9.772;2023-02-15T16:10:22;19.33;;;10.67;;
5157;SDS011;2598;52.364;9.772;2023-02-15T16:12:48;20.07;;;11.20;;
5157;SDS011;2598;52.364;9.772;2023-02-15T16:15:24;23.00;;;11.77;;
5157;SDS011;2598;52.364;9.772;2023-02-15T16:17:52;23.60;;;11.77;;
5157;SDS011;2598;52.364;9.772;2023-02-15T16:20:26;16.07;;;10.50;;
5157;SDS011;2598;52.364;9.772;2023-02-15T16:23:01;16.73;;;10.03;;
5157;SDS011;2598;52.364;9.772;2023-02-15T16:25:35;20.17;;;11.10;;
5157;SDS011;2598;52.364;9.772;2023-02-15T16:28:06;22.07;;;12.00;;
5157;SDS011;2598;52.364;9.772;2023-02-15T16:30:33;25.53;;;12.30;;
5157;SDS011;2598;52.364;9.772;2023-02-15T16:33:07;24.93;;;11.60;;
5157;SDS011;2598;52.364;9.772;2023-02-15T16:35:33;19.57;;;10.73;;
5157;SDS011;2598;52.364;9.772;2023-02-15T16:38:00;19.50;;;10.30;;
5157;SDS011;2598;52.364;9.772;2023-02-15T16:40:35;21.97;;;12.97;;
5157;SDS011;2598;52.364;9.772;2023-02-15T16:43:04;18.77;;;10.83;;
5157;SDS011;2598;52.364;9.772;2023-02-15T16:45:34;18.83;;;11.10;;
5157;SDS011;2598;52.364;9.772;2023-02-15T16:48:04;20.17;;;11.60;;
5157;SDS011;2598;52.364;9.772;2023-02-15T16:50:33;20.23;;;11.67;;
5157;SDS011;2598;52.364;9.772;2023-02-15T16:53:00;25.83;;;11.50;;
5157;SDS011;2598;52.364;9.772;2023-02-15T16:55:28;19.80;;;11.37;;
5157;SDS011;2598;52.364;9.772;2023-02-15T16:57:57;22.63;;;13.27;;